Wilson Gdynia — 8PSA — position and weather

sailwx.info

Track history (hours):
 
Tides and Currents Weather Stations Pressure Air Temp Water Temp Dewpoint Dewpoint Depression Visibility Wind Speed Wind Dir Waves Ship Positions

Wilson Gdynia

Last reported at 2016-Jun-30 03:32 UTC. Time now 2016-Jul-01 15:30 UTC.
Position N 63°30' E 009°04'.

Length 88 m; draft 4.2 m.

Type: Cargo ship. MMSI: 314192000.

Date/timePositionNaut miles runAvg speedWind from/ knotsBaromVisibWave heightAir tempDewpointWater temp
2016-Jun-30 03:32N 63°30' E 009°04'1110.8
2016-Jun-30 02:32N 63°35' E 009°26'10 9.2
2016-Jun-30 01:25N 63°36' E 009°49'911.1
2016-Jun-30 00:33N 63°29' E 010°02'1211.5
2016-Jun-29 23:34N 63°34' E 010°26'1211.6
2016-Jun-29 22:33N 63°41' E 010°47'1111.3
2016-Jun-29 21:34N 63°49' E 011°04'1 0.0
2016-Jun-28 04:21N 63°51' E 011°05'810.4
2016-Jun-28 03:33N 63°43' E 010°56'1010.3
2016-Jun-28 02:34N 63°37' E 010°37'1010.3
2016-Jun-28 01:34N 63°29' E 010°24'8 8.3
2016-Jun-28 00:33N 63°28' E 010°06'9 8.8
2016-Jun-27 23:33N 63°34' E 009°51'7 7.4
2016-Jun-27 22:33N 63°38' E 009°36'1210.3
2016-Jun-27 21:23N 63°32' E 009°13'461 9.8
2016-Jun-25 22:32N 59°18' W 004°12'189 7.5
2016-Jun-24 21:18N 56°16' W 005°52'810.8
2016-Jun-24 20:33N 56°22' W 005°40'1110.8
2016-Jun-24 19:34N 56°32' W 005°34'1111.4
2016-Jun-24 18:33N 56°40' W 005°19'8 0.7
2016-Jun-24 07:32N 56°46' W 005°11'24 8.0
2016-Jun-24 04:31N 56°27' W 005°38'9 8.6
2016-Jun-24 03:32N 56°19' W 005°43'42 8.4
2016-Jun-23 22:34N 55°48' W 006°32'8 8.0
2016-Jun-23 21:34N 55°40' W 006°35'8 7.5
2016-Jun-23 20:33N 55°34' W 006°26'8 7.8
2016-Jun-23 19:33N 55°28' W 006°17'8 7.7
2016-Jun-23 18:33N 55°26' W 006°05'8 7.9
2016-Jun-23 17:33N 55°19' W 005°56'17 7.8
2016-Jun-23 15:26N 55°17' W 005°27'8 8.5
2016-Jun-23 14:27N 55°20' W 005°13'  
2016-Jun-21 09:08N 55°14' W 005°30'6 9.9
2016-Jun-21 08:33N 55°13' W 005°39'1010.5
2016-Jun-21 07:33N 55°15' W 005°57'2211.0
2016-Jun-21 05:33N 55°27' W 006°29'10 9.7
2016-Jun-21 04:33N 55°32' W 006°44'8 8.1
2016-Jun-21 03:33N 55°37' W 006°55'8 7.7
2016-Jun-21 02:33N 55°40' W 007°08'  
Track history (hours):
 
Tides and Currents Weather Stations Pressure Air Temp Water Temp Dewpoint Dewpoint Depression Visibility Wind Speed Wind Dir Waves Ship Positions

Wilson Gdynia

Last reported at 2016-Jun-30 03:32 UTC. Time now 2016-Jul-01 15:30 UTC.
Position N 63°30' E 009°04'.

Length 88 m; draft 4.2 m.

Type: Cargo ship. MMSI: 314192000.

Date/timePositionNaut miles runAvg speedWind from/ knotsBaromVisibWave heightAir tempDewpointWater temp
2016-Jun-30 03:32N 63°30' E 009°04'1110.8
2016-Jun-30 02:32N 63°35' E 009°26'10 9.2
2016-Jun-30 01:25N 63°36' E 009°49'911.1
2016-Jun-30 00:33N 63°29' E 010°02'1211.5
2016-Jun-29 23:34N 63°34' E 010°26'1211.6
2016-Jun-29 22:33N 63°41' E 010°47'1111.3
2016-Jun-29 21:34N 63°49' E 011°04'1 0.0
2016-Jun-28 04:21N 63°51' E 011°05'810.4
2016-Jun-28 03:33N 63°43' E 010°56'1010.3
2016-Jun-28 02:34N 63°37' E 010°37'1010.3
2016-Jun-28 01:34N 63°29' E 010°24'8 8.3
2016-Jun-28 00:33N 63°28' E 010°06'9 8.8
2016-Jun-27 23:33N 63°34' E 009°51'7 7.4
2016-Jun-27 22:33N 63°38' E 009°36'1210.3
2016-Jun-27 21:23N 63°32' E 009°13'461 9.8
2016-Jun-25 22:32N 59°18' W 004°12'189 7.5
2016-Jun-24 21:18N 56°16' W 005°52'810.8
2016-Jun-24 20:33N 56°22' W 005°40'1110.8
2016-Jun-24 19:34N 56°32' W 005°34'1111.4
2016-Jun-24 18:33N 56°40' W 005°19'8 0.7
2016-Jun-24 07:32N 56°46' W 005°11'24 8.0
2016-Jun-24 04:31N 56°27' W 005°38'9 8.6
2016-Jun-24 03:32N 56°19' W 005°43'42 8.4
2016-Jun-23 22:34N 55°48' W 006°32'8 8.0
2016-Jun-23 21:34N 55°40' W 006°35'8 7.5
2016-Jun-23 20:33N 55°34' W 006°26'8 7.8
2016-Jun-23 19:33N 55°28' W 006°17'8 7.7
2016-Jun-23 18:33N 55°26' W 006°05'8 7.9
2016-Jun-23 17:33N 55°19' W 005°56'17 7.8
2016-Jun-23 15:26N 55°17' W 005°27'8 8.5
2016-Jun-23 14:27N 55°20' W 005°13'  
2016-Jun-21 09:08N 55°14' W 005°30'6 9.9
2016-Jun-21 08:33N 55°13' W 005°39'1010.5
2016-Jun-21 07:33N 55°15' W 005°57'2211.0
2016-Jun-21 05:33N 55°27' W 006°29'10 9.7
2016-Jun-21 04:33N 55°32' W 006°44'8 8.1
2016-Jun-21 03:33N 55°37' W 006°55'8 7.7
2016-Jun-21 02:33N 55°40' W 007°08'  

Dump ship's entire track history